KLBF/LBF METAR and TAF weather

Enter ICAO airport designator
Station Type Date Time Source
KLBF METAR 2021/03/05 17:53 UTC NOAA

KLBF 051753Z AUTO VRB03KT 10SM CLR 16/01 A3028 RMK AO2 SLP254 I6000 T01560006 10156 21044 58002


Station Type Date Time Source
KLBF Decoded METAR 2021/03/05 17:53 UTC NOAA

NORTH PLATTE REGIONAL AIRPORT , NE, United States (KLBF) 41-07N 100-40W 847M
Mar 05, 2021 - 12:53 PM EST / 2021.03.05 1753 UTC
Wind: Variable at 3 MPH (3 KT):0
Visibility: 10 mile(s):0
Sky conditions: clear
Temperature: 60.1 F (15.6 C)
Dew Point: 33.1 F (0.6 C)
Relative Humidity: 36%
Pressure (altimeter): 30.28 in. Hg (1025 hPa)
Pressure tendency: 0.01 inches (0.2 hPa) lower than three hours ago
ob: KLBF 051753Z AUTO VRB03KT 10SM CLR 16/01 A3028 RMK AO2 SLP254 I6000 T01560006 10156 21044 58002
cycle: 18

Station Type Date Time Source
KLBF TAF 2021/03/05 18:22 UTC NOAA

TAF KLBF 051720Z 0518/0618 VRB06KT P6SM SKC
FM061600 20010KT P6SM FEW200

Example: see airport list